首页
METAR-TAF:

METAR-TAF

机场 :

Pinedale, 怀俄明州, 美国

纬度: 42-47-43N, 经度: 109-48-25W, 海拔: 2160米

当前天气观测

该预报发布于31分钟前的17:55 UTC
风速18节,风向西转西北,有时为22节阵风
温度 0°C
湿度 55%
气压 1015 hPa
能見度: 16.1公里
天空无云

METAR: KPNA 281755Z AUTO 30018G22KT 10SM CLR 00/M08 A2998 RMK AO2

时间: 12:26 (18:26 UTC)

预报

该预报发布于50分钟前的17:36 UTC
预报有效从28日的 18点(UTC)到 29日的 18点(UTC)
风速13节,风向西转西北,有时为23节阵风
能見度: 10公里
散云层高于6000英尺
从 28日的 2100点(UTC)
风速15节,风向西转西北,有时为25节阵风
能見度: 10公里
多云层高于4000英尺
附近有阵雨
从 29日的 0100点(UTC)
风速8节,风向西转西北
能見度: 10公里
多云层高于4500英尺
从 29日的 0600点(UTC)
风速4节,风向西转西北
能見度: 10公里
多云层高于5000英尺

TAF: KPNA 281736Z 2818/2918 30013G23KT P6SM SCT060 FM282100 30015G25KT P6SM VCSH BKN040 FM290100 30008KT P6SM BKN045 FM290600 30004KT P6SM BKN050

超过4000个机场的气象观测和天气预报(METAR&TAF报告)。

可查询的气象台以黄色和红色小点在地图上表示。

将鼠标移到小点上方,可查看气象台名称。

然后点击查看天气观测和预报。

如需切换地图:点击带黑十字的绿色按钮放大地图;点击带横线的绿色按钮缩小地图;或者点击绿色箭头查看邻近地区的地图。


METAR-TAF: